sensor_id;sensor_type;location;lat;lon;timestamp;pressure;altitude;pressure_sealevel;temperature;humidity
44349;BME280;30068;50.986;4.564;2022-09-09T00:06:29;100884.50;;;15.36;89.48
44349;BME280;30068;50.986;4.564;2022-09-09T00:11:39;100882.75;;;14.74;88.83
44349;BME280;30068;50.986;4.564;2022-09-09T00:14:23;100878.91;;;14.58;89.02
44349;BME280;30068;50.986;4.564;2022-09-09T00:16:55;100882.19;;;14.88;89.69
44349;BME280;30068;50.986;4.564;2022-09-09T00:19:37;100875.78;;;14.98;88.62
44349;BME280;30068;50.986;4.564;2022-09-09T00:22:20;100880.38;;;14.71;88.18
44349;BME280;30068;50.986;4.564;2022-09-09T00:24:53;100880.69;;;14.40;88.70
44349;BME280;30068;50.986;4.564;2022-09-09T00:27:45;100863.97;;;14.19;89.19
44349;BME280;30068;50.986;4.564;2022-09-09T00:30:26;100869.00;;;13.95;89.76
44349;BME280;30068;50.986;4.564;2022-09-09T00:32:59;100867.66;;;14.18;90.67
44349;BME280;30068;50.986;4.564;2022-09-09T00:35:38;100864.66;;;14.48;90.49
44349;BME280;30068;50.986;4.564;2022-09-09T00:40:55;100865.19;;;14.79;89.51
44349;BME280;30068;50.986;4.564;2022-09-09T00:43:29;100863.72;;;14.85;89.75
44349;BME280;30068;50.986;4.564;2022-09-09T00:57:30;100857.97;;;14.97;90.02
44349;BME280;30068;50.986;4.564;2022-09-09T00:59:58;100851.13;;;15.03;89.74
44349;BME280;30068;50.986;4.564;2022-09-09T01:02:28;100845.53;;;15.14;90.13
44349;BME280;30068;50.986;4.564;2022-09-09T01:04:54;100836.22;;;15.26;90.03
44349;BME280;30068;50.986;4.564;2022-09-09T01:07:20;100843.00;;;15.38;89.61
44349;BME280;30068;50.986;4.564;2022-09-09T01:09:55;100834.66;;;15.41;89.06
44349;BME280;30068;50.986;4.564;2022-09-09T01:15:14;100828.63;;;15.48;89.40
44349;BME280;30068;50.986;4.564;2022-09-09T01:20:18;100829.28;;;15.50;89.26
44349;BME280;30068;50.986;4.564;2022-09-09T01:28:20;100823.69;;;15.61;88.84
44349;BME280;30068;50.986;4.564;2022-09-09T01:30:47;100823.56;;;15.62;89.12
44349;BME280;30068;50.986;4.564;2022-09-09T01:33:16;100817.13;;;15.63;89.22
44349;BME280;30068;50.986;4.564;2022-09-09T01:35:57;100818.31;;;15.61;88.52
44349;BME280;30068;50.986;4.564;2022-09-09T01:38:26;100817.31;;;15.62;89.02
44349;BME280;30068;50.986;4.564;2022-09-09T01:40:53;100805.88;;;15.60;88.88
44349;BME280;30068;50.986;4.564;2022-09-09T01:43:22;100807.56;;;15.61;88.77
44349;BME280;30068;50.986;4.564;2022-09-09T01:45:52;100803.88;;;15.62;88.32
44349;BME280;30068;50.986;4.564;2022-09-09T01:48:21;100799.50;;;15.61;88.62
44349;BME280;30068;50.986;4.564;2022-09-09T01:50:47;100797.09;;;15.58;88.63
44349;BME280;30068;50.986;4.564;2022-09-09T01:53:15;100804.19;;;15.59;88.60
44349;BME280;30068;50.986;4.564;2022-09-09T01:56:13;100796.97;;;15.59;88.79
44349;BME280;30068;50.986;4.564;2022-09-09T01:58:41;100789.72;;;15.60;88.86
44349;BME280;30068;50.986;4.564;2022-09-09T02:03:56;100792.41;;;15.60;88.31
44349;BME280;30068;50.986;4.564;2022-09-09T02:06:33;100785.69;;;15.56;88.37
44349;BME280;30068;50.986;4.564;2022-09-09T02:09:03;100791.06;;;15.56;88.36
44349;BME280;30068;50.986;4.564;2022-09-09T02:11:30;100785.00;;;15.54;88.70
44349;BME280;30068;50.986;4.564;2022-09-09T02:14:08;100784.84;;;15.55;88.81
44349;BME280;30068;50.986;4.564;2022-09-09T02:16:44;100794.28;;;15.59;88.55
44349;BME280;30068;50.986;4.564;2022-09-09T02:19:25;100787.88;;;15.60;88.72
44349;BME280;30068;50.986;4.564;2022-09-09T02:21:54;100792.28;;;15.61;88.52
44349;BME280;30068;50.986;4.564;2022-09-09T02:24:21;100792.41;;;15.60;88.31
44349;BME280;30068;50.986;4.564;2022-09-09T02:26:50;100783.81;;;15.56;88.31
44349;BME280;30068;50.986;4.564;2022-09-09T02:29:20;100789.03;;;15.58;88.63
44349;BME280;30068;50.986;4.564;2022-09-09T02:31:49;100792.41;;;15.60;88.72
44349;BME280;30068;50.986;4.564;2022-09-09T02:34:18;100786.50;;;15.56;88.44
44349;BME280;30068;50.986;4.564;2022-09-09T02:36:46;100789.19;;;15.56;88.30
44349;BME280;30068;50.986;4.564;2022-09-09T02:39:12;100793.97;;;15.62;87.95
44349;BME280;30068;50.986;4.564;2022-09-09T02:41:41;100794.31;;;15.67;88.37
44349;BME280;30068;50.986;4.564;2022-09-09T02:44:14;100795.22;;;15.76;88.75
44349;BME280;30068;50.986;4.564;2022-09-09T02:52:08;100799.00;;;15.65;88.12
44349;BME280;30068;50.986;4.564;2022-09-09T02:54:38;100799.34;;;15.70;88.05
44349;BME280;30068;50.986;4.564;2022-09-09T02:57:11;100799.56;;;15.77;88.04
44349;BME280;30068;50.986;4.564;2022-09-09T02:59:38;100796.03;;;15.76;87.63
44349;BME280;30068;50.986;4.564;2022-09-09T03:02:04;100799.22;;;15.72;87.80
44349;BME280;30068;50.986;4.564;2022-09-09T03:04:30;100800.53;;;15.68;87.76
44349;BME280;30068;50.986;4.564;2022-09-09T03:06:57;100786.56;;;15.64;87.56
44349;BME280;30068;50.986;4.564;2022-09-09T03:09:22;100790.25;;;15.63;88.03
44349;BME280;30068;50.986;4.564;2022-09-09T03:11:48;100789.78;;;15.68;88.43
44349;BME280;30068;50.986;4.564;2022-09-09T03:14:15;100785.06;;;15.70;88.33
44349;BME280;30068;50.986;4.564;2022-09-09T03:16:40;100790.94;;;15.65;88.44
44349;BME280;30068;50.986;4.564;2022-09-09T03:19:07;100783.56;;;15.67;88.54
44349;BME280;30068;50.986;4.564;2022-09-09T03:21:32;100778.34;;;15.66;88.12
44349;BME280;30068;50.986;4.564;2022-09-09T03:23:58;100782.72;;;15.67;88.54
44349;BME280;30068;50.986;4.564;2022-09-09T03:26:23;100778.53;;;15.72;88.33
44349;BME280;30068;50.986;4.564;2022-09-09T03:28:49;100777.00;;;15.70;88.49
44349;BME280;30068;50.986;4.564;2022-09-09T03:31:17;100769.97;;;15.69;88.56
44349;BME280;30068;50.986;4.564;2022-09-09T03:33:44;100770.63;;;15.71;88.07
44349;BME280;30068;50.986;4.564;2022-09-09T03:36:10;100765.78;;;15.74;88.30
44349;BME280;30068;50.986;4.564;2022-09-09T03:38:35;100774.84;;;15.73;88.23
44349;BME280;30068;50.986;4.564;2022-09-09T03:41:01;100771.00;;;15.76;88.12
44349;BME280;30068;50.986;4.564;2022-09-09T03:43:27;100772.34;;;15.80;88.58
44349;BME280;30068;50.986;4.564;2022-09-09T03:45:53;100775.03;;;15.80;88.22
44349;BME280;30068;50.986;4.564;2022-09-09T03:48:22;100779.72;;;15.78;88.29
44349;BME280;30068;50.986;4.564;2022-09-09T03:50:52;100770.50;;;15.80;88.52
44349;BME280;30068;50.986;4.564;2022-09-09T03:53:19;100779.25;;;15.83;88.00
44349;BME280;30068;50.986;4.564;2022-09-09T03:55:53;100774.06;;;15.89;88.28
44349;BME280;30068;50.986;4.564;2022-09-09T03:58:20;100769.69;;;15.88;88.21
44349;BME280;30068;50.986;4.564;2022-09-09T04:00:57;100761.94;;;15.85;88.39
44349;BME280;30068;50.986;4.564;2022-09-09T04:03:24;100759.94;;;15.87;88.07
44349;BME280;30068;50.986;4.564;2022-09-09T04:05:51;100759.25;;;15.85;88.28
44349;BME280;30068;50.986;4.564;2022-09-09T04:08:17;100755.88;;;15.83;87.81
44349;BME280;30068;50.986;4.564;2022-09-09T04:10:45;100752.38;;;15.83;87.81
44349;BME280;30068;50.986;4.564;2022-09-09T04:13:12;100745.94;;;15.75;88.15
44349;BME280;30068;50.986;4.564;2022-09-09T04:15:41;100747.59;;;15.76;87.59
44349;BME280;30068;50.986;4.564;2022-09-09T04:18:07;100748.81;;;15.82;87.72
44349;BME280;30068;50.986;4.564;2022-09-09T04:20:33;100746.28;;;15.80;87.99
44349;BME280;30068;50.986;4.564;2022-09-09T04:22:58;100748.13;;;15.80;87.97
44349;BME280;30068;50.986;4.564;2022-09-09T04:25:24;100742.91;;;15.78;87.46
44349;BME280;30068;50.986;4.564;2022-09-09T04:27:57;100742.22;;;15.76;87.62
44349;BME280;30068;50.986;4.564;2022-09-09T04:30:24;100737.53;;;15.78;87.63
44349;BME280;30068;50.986;4.564;2022-09-09T04:32:49;100733.69;;;15.81;88.03
44349;BME280;30068;50.986;4.564;2022-09-09T04:35:15;100740.06;;;15.80;88.06
44349;BME280;30068;50.986;4.564;2022-09-09T04:37:41;100735.69;;;15.79;87.93
44349;BME280;30068;50.986;4.564;2022-09-09T04:40:07;100734.34;;;15.83;87.98
44349;BME280;30068;50.986;4.564;2022-09-09T04:42:38;100728.31;;;15.81;87.85
44349;BME280;30068;50.986;4.564;2022-09-09T04:45:05;100737.53;;;15.78;87.35
44349;BME280;30068;50.986;4.564;2022-09-09T04:47:31;100740.56;;;15.84;87.64
44349;BME280;30068;50.986;4.564;2022-09-09T04:49:57;100743.59;;;15.80;87.62
44349;BME280;30068;50.986;4.564;2022-09-09T04:52:22;100732.00;;;15.80;87.88
44349;BME280;30068;50.986;4.564;2022-09-09T04:54:47;100734.34;;;15.83;87.92
44349;BME280;30068;50.986;4.564;2022-09-09T04:57:13;100743.09;;;15.85;87.76
44349;BME280;30068;50.986;4.564;2022-09-09T04:59:38;100739.72;;;15.83;87.70
44349;BME280;30068;50.986;4.564;2022-09-09T05:02:05;100746.78;;;15.84;87.55
44349;BME280;30068;50.986;4.564;2022-09-09T05:04:30;100751.31;;;15.84;87.50
44349;BME280;30068;50.986;4.564;2022-09-09T05:06:56;100743.44;;;15.82;87.69
44349;BME280;30068;50.986;4.564;2022-09-09T05:09:21;100750.47;;;15.83;87.92
44349;BME280;30068;50.986;4.564;2022-09-09T05:11:47;100750.47;;;15.83;88.00
44349;BME280;30068;50.986;4.564;2022-09-09T05:14:12;100749.31;;;15.86;87.72
44349;BME280;30068;50.986;4.564;2022-09-09T05:16:38;100749.16;;;15.87;87.51
44349;BME280;30068;50.986;4.564;2022-09-09T05:19:03;100746.47;;;15.87;87.35
44349;BME280;30068;50.986;4.564;2022-09-09T05:21:29;100751.53;;;15.90;87.55
44349;BME280;30068;50.986;4.564;2022-09-09T05:23:56;100749.66;;;15.91;87.54
44349;BME280;30068;50.986;4.564;2022-09-09T05:26:22;100752.22;;;15.92;87.71
44349;BME280;30068;50.986;4.564;2022-09-09T05:28:48;100750.22;;;15.94;87.43
44349;BME280;30068;50.986;4.564;2022-09-09T05:31:15;100755.06;;;15.91;87.49
44349;BME280;30068;50.986;4.564;2022-09-09T05:33:42;100751.22;;;15.93;87.42
44349;BME280;30068;50.986;4.564;2022-09-09T05:36:10;100748.22;;;15.96;87.60
44349;BME280;30068;50.986;4.564;2022-09-09T05:38:38;100754.63;;;16.03;87.78
44349;BME280;30068;50.986;4.564;2022-09-09T05:41:04;100744.19;;;16.08;87.64
44349;BME280;30068;50.986;4.564;2022-09-09T05:43:30;100745.34;;;16.06;87.47
44349;BME280;30068;50.986;4.564;2022-09-09T05:48:30;100732.78;;;16.14;87.72
44349;BME280;30068;50.986;4.564;2022-09-09T05:50:58;100730.25;;;16.21;88.14
44349;BME280;30068;50.986;4.564;2022-09-09T05:53:23;100727.91;;;16.26;87.59
44349;BME280;30068;50.986;4.564;2022-09-09T05:55:49;100726.75;;;16.29;87.07
44349;BME280;30068;50.986;4.564;2022-09-09T05:58:15;100727.44;;;16.31;87.06
44349;BME280;30068;50.986;4.564;2022-09-09T06:00:42;100723.03;;;16.30;87.96
44349;BME280;30068;50.986;4.564;2022-09-09T06:03:12;100738.84;;;16.33;86.61
44349;BME280;30068;50.986;4.564;2022-09-09T06:05:37;100743.56;;;16.39;87.65
44349;BME280;30068;50.986;4.564;2022-09-09T06:08:03;100736.03;;;16.42;87.22
44349;BME280;30068;50.986;4.564;2022-09-09T06:10:28;100746.09;;;16.40;87.00
44349;BME280;30068;50.986;4.564;2022-09-09T06:12:54;100755.03;;;16.41;86.35
44349;BME280;30068;50.986;4.564;2022-09-09T06:15:20;100746.28;;;16.47;86.31
44349;BME280;30068;50.986;4.564;2022-09-09T06:17:46;100747.66;;;16.51;87.07
44349;BME280;30068;50.986;4.564;2022-09-09T06:20:12;100749.50;;;16.50;86.66
44349;BME280;30068;50.986;4.564;2022-09-09T06:22:41;100752.19;;;16.50;86.24
44349;BME280;30068;50.986;4.564;2022-09-09T06:25:08;100745.97;;;16.50;86.55
44349;BME280;30068;50.986;4.564;2022-09-09T06:27:34;100741.75;;;16.47;85.58
44349;BME280;30068;50.986;4.564;2022-09-09T06:30:00;100737.72;;;16.43;85.19
44349;BME280;30068;50.986;4.564;2022-09-09T06:32:25;100736.19;;;16.49;86.59
44349;BME280;30068;50.986;4.564;2022-09-09T06:34:52;100739.72;;;16.49;85.45
44349;BME280;30068;50.986;4.564;2022-09-09T06:37:17;100728.81;;;16.51;86.75
44349;BME280;30068;50.986;4.564;2022-09-09T06:39:42;100726.94;;;16.59;86.89
44349;BME280;30068;50.986;4.564;2022-09-09T06:42:08;100736.75;;;16.69;85.53
44349;BME280;30068;50.986;4.564;2022-09-09T06:44:34;100737.06;;;16.82;85.48
44349;BME280;30068;50.986;4.564;2022-09-09T06:46:59;100739.59;;;16.83;85.21
44349;BME280;30068;50.986;4.564;2022-09-09T06:49:24;100739.44;;;16.85;84.01
44349;BME280;30068;50.986;4.564;2022-09-09T06:51:50;100738.25;;;16.79;84.97
44349;BME280;30068;50.986;4.564;2022-09-09T06:54:17;100739.28;;;16.70;84.47
44349;BME280;30068;50.986;4.564;2022-09-09T06:56:43;100729.16;;;16.80;85.62
44349;BME280;30068;50.986;4.564;2022-09-09T06:59:11;100738.09;;;16.81;84.17
44349;BME280;30068;50.986;4.564;2022-09-09T07:01:42;100729.50;;;16.85;84.65
44349;BME280;30068;50.986;4.564;2022-09-09T07:04:09;100725.44;;;16.89;85.54
44349;BME280;30068;50.986;4.564;2022-09-09T07:06:41;100718.38;;;16.80;84.38
44349;BME280;30068;50.986;4.564;2022-09-09T07:09:10;100721.06;;;16.80;84.74
44349;BME280;30068;50.986;4.564;2022-09-09T07:11:39;100717.38;;;16.81;84.25
44349;BME280;30068;50.986;4.564;2022-09-09T07:14:06;100729.50;;;16.85;85.65
44349;BME280;30068;50.986;4.564;2022-09-09T07:16:32;100739.94;;;16.88;84.98
44349;BME280;30068;50.986;4.564;2022-09-09T07:18:58;100725.28;;;16.83;84.17
44349;BME280;30068;50.986;4.564;2022-09-09T07:21:26;100728.50;;;16.78;83.29
44349;BME280;30068;50.986;4.564;2022-09-09T07:23:52;100736.22;;;16.89;85.20
44349;BME280;30068;50.986;4.564;2022-09-09T07:26:20;100732.84;;;16.95;84.63
44349;BME280;30068;50.986;4.564;2022-09-09T07:28:46;100728.63;;;16.93;83.98
44349;BME280;30068;50.986;4.564;2022-09-09T07:31:19;100727.97;;;16.91;83.95
44349;BME280;30068;50.986;4.564;2022-09-09T07:33:46;100729.84;;;16.98;85.43
44349;BME280;30068;50.986;4.564;2022-09-09T07:36:17;100717.16;;;17.07;84.88
44349;BME280;30068;50.986;4.564;2022-09-09T07:38:45;100726.78;;;17.10;84.09
44349;BME280;30068;50.986;4.564;2022-09-09T07:41:17;100727.63;;;17.10;84.85
44349;BME280;30068;50.986;4.564;2022-09-09T07:43:44;100731.00;;;17.12;84.23
44349;BME280;30068;50.986;4.564;2022-09-09T07:46:11;100734.03;;;17.09;82.87
44349;BME280;30068;50.986;4.564;2022-09-09T07:48:38;100732.00;;;17.11;84.49
44349;BME280;30068;50.986;4.564;2022-09-09T07:51:08;100729.31;;;17.11;84.56
44349;BME280;30068;50.986;4.564;2022-09-09T07:53:34;100732.31;;;17.16;84.56
44349;BME280;30068;50.986;4.564;2022-09-09T07:56:09;100729.47;;;17.18;84.29
44349;BME280;30068;50.986;4.564;2022-09-09T07:58:36;100732.66;;;17.13;81.89
44349;BME280;30068;50.986;4.564;2022-09-09T08:01:07;100726.94;;;17.16;84.04
44349;BME280;30068;50.986;4.564;2022-09-09T08:03:34;100727.09;;;17.23;84.26
44349;BME280;30068;50.986;4.564;2022-09-09T08:06:02;100725.72;;;17.27;83.84
44349;BME280;30068;50.986;4.564;2022-09-09T08:08:28;100720.31;;;17.27;82.89
44349;BME280;30068;50.986;4.564;2022-09-09T08:10:53;100717.28;;;17.38;83.99
44349;BME280;30068;50.986;4.564;2022-09-09T08:13:18;100725.50;;;17.53;83.51
44349;BME280;30068;50.986;4.564;2022-09-09T08:15:44;100728.66;;;17.72;81.87
44349;BME280;30068;50.986;4.564;2022-09-09T08:18:09;100728.63;;;17.81;81.11
44349;BME280;30068;50.986;4.564;2022-09-09T08:20:36;100728.34;;;17.98;82.15
44349;BME280;30068;50.986;4.564;2022-09-09T08:23:02;100731.84;;;18.07;80.71
44349;BME280;30068;50.986;4.564;2022-09-09T08:25:27;100735.75;;;18.04;81.25
44349;BME280;30068;50.986;4.564;2022-09-09T08:27:53;100742.28;;;18.10;82.86
44349;BME280;30068;50.986;4.564;2022-09-09T08:30:19;100731.19;;;18.05;80.14
44349;BME280;30068;50.986;4.564;2022-09-09T08:32:44;100734.56;;;18.07;81.01
44349;BME280;30068;50.986;4.564;2022-09-09T08:35:10;100742.66;;;18.07;80.15
44349;BME280;30068;50.986;4.564;2022-09-09T08:37:36;100741.34;;;17.95;81.12
44349;BME280;30068;50.986;4.564;2022-09-09T08:40:02;100741.88;;;17.90;80.42
44349;BME280;30068;50.986;4.564;2022-09-09T08:42:35;100751.22;;;17.80;79.48
44349;BME280;30068;50.986;4.564;2022-09-09T08:45:31;100757.31;;;17.73;80.48
44349;BME280;30068;50.986;4.564;2022-09-09T08:50:30;100752.97;;;17.64;81.91
44349;BME280;30068;50.986;4.564;2022-09-09T09:11:48;100779.78;;;17.66;82.72
44349;BME280;30068;50.986;4.564;2022-09-09T09:14:20;100775.91;;;17.60;81.98
44349;BME280;30068;50.986;4.564;2022-09-09T09:17:00;100783.81;;;17.62;81.99
44349;BME280;30068;50.986;4.564;2022-09-09T09:19:27;100787.03;;;17.65;82.18
44349;BME280;30068;50.986;4.564;2022-09-09T09:22:06;100777.94;;;17.66;83.28
44349;BME280;30068;50.986;4.564;2022-09-09T09:24:52;100776.06;;;17.59;81.38
44349;BME280;30068;50.986;4.564;2022-09-09T09:30:19;100789.19;;;17.54;81.64
44349;BME280;30068;50.986;4.564;2022-09-09T09:33:27;100787.25;;;17.40;81.89
44349;BME280;30068;50.986;4.564;2022-09-09T09:35:33;100782.66;;;17.40;80.44
44349;BME280;30068;50.986;4.564;2022-09-09T09:37:58;100783.47;;;17.57;83.02
44349;BME280;30068;50.986;4.564;2022-09-09T09:40:25;100791.06;;;17.61;81.77
44349;BME280;30068;50.986;4.564;2022-09-09T09:48:06;100780.94;;;17.71;82.26
44349;BME280;30068;50.986;4.564;2022-09-09T09:50:34;100791.91;;;17.70;82.62
44349;BME280;30068;50.986;4.564;2022-09-09T09:53:03;100785.69;;;17.61;81.70
44349;BME280;30068;50.986;4.564;2022-09-09T09:55:30;100793.75;;;17.69;82.20
44349;BME280;30068;50.986;4.564;2022-09-09T09:58:00;100799.13;;;17.77;81.76
44349;BME280;30068;50.986;4.564;2022-09-09T10:00:26;100798.97;;;17.71;81.50
44349;BME280;30068;50.986;4.564;2022-09-09T10:02:51;100792.91;;;17.69;81.87
44349;BME280;30068;50.986;4.564;2022-09-09T10:05:19;100801.84;;;17.69;80.81
44349;BME280;30068;50.986;4.564;2022-09-09T10:07:45;100796.63;;;17.68;82.93
44349;BME280;30068;50.986;4.564;2022-09-09T10:10:21;100798.47;;;17.75;82.74
44349;BME280;30068;50.986;4.564;2022-09-09T10:15:28;100802.66;;;17.86;81.55
44349;BME280;30068;50.986;4.564;2022-09-09T11:16:25;100802.19;;;18.75;74.92
44349;BME280;30068;50.986;4.564;2022-09-09T11:19:01;100817.16;;;18.86;76.47
44349;BME280;30068;50.986;4.564;2022-09-09T11:21:31;100809.41;;;18.83;76.60
44349;BME280;30068;50.986;4.564;2022-09-09T11:24:04;100802.50;;;18.80;76.35
44349;BME280;30068;50.986;4.564;2022-09-09T11:27:02;100828.69;;;19.03;76.40
44349;BME280;30068;50.986;4.564;2022-09-09T11:35:45;100827.97;;;19.09;74.85
44349;BME280;30068;50.986;4.564;2022-09-09T11:38:27;100828.13;;;19.07;75.27
44349;BME280;30068;50.986;4.564;2022-09-09T11:41:00;100826.22;;;19.16;75.39
44349;BME280;30068;50.986;4.564;2022-09-09T11:43:29;100825.94;;;19.25;74.84
44349;BME280;30068;50.986;4.564;2022-09-09T11:45:58;100817.09;;;19.31;74.76
44349;BME280;30068;50.986;4.564;2022-09-09T11:48:39;100821.69;;;19.46;74.10
44349;BME280;30068;50.986;4.564;2022-09-09T11:51:12;100829.09;;;19.52;75.28
44349;BME280;30068;50.986;4.564;2022-09-09T11:53:49;100821.19;;;19.50;73.46
44349;BME280;30068;50.986;4.564;2022-09-09T11:56:28;100822.13;;;19.57;74.31
44349;BME280;30068;50.986;4.564;2022-09-09T11:59:19;100821.69;;;19.46;71.56
44349;BME280;30068;50.986;4.564;2022-09-09T12:01:45;100829.66;;;19.24;73.87
44349;BME280;30068;50.986;4.564;2022-09-09T12:04:21;100820.63;;;19.55;74.27
44349;BME280;30068;50.986;4.564;2022-09-09T12:07:04;100827.44;;;19.51;75.67
44349;BME280;30068;50.986;4.564;2022-09-09T12:12:44;100820.94;;;19.75;nan
44349;BME280;30068;50.986;4.564;2022-09-09T12:17:46;100819.72;;;19.77;72.42
44349;BME280;30068;50.986;4.564;2022-09-09T12:20:19;100829.22;;;20.02;72.30
44349;BME280;30068;50.986;4.564;2022-09-09T12:25:52;100829.06;;;19.75;73.23
44349;BME280;30068;50.986;4.564;2022-09-09T12:31:39;100824.09;;;19.63;73.39
44349;BME280;30068;50.986;4.564;2022-09-09T12:34:15;100827.34;;;19.59;74.47
44349;BME280;30068;50.986;4.564;2022-09-09T12:36:43;100829.22;;;19.58;73.95
44349;BME280;30068;50.986;4.564;2022-09-09T12:39:19;100837.06;;;19.68;73.91
44349;BME280;30068;50.986;4.564;2022-09-09T12:41:53;100824.00;;;19.57;72.45
44349;BME280;30068;50.986;4.564;2022-09-09T12:44:22;100822.66;;;19.53;73.16
44349;BME280;30068;50.986;4.564;2022-09-09T12:46:48;100813.66;;;19.75;75.08
44349;BME280;30068;50.986;4.564;2022-09-09T12:49:27;100822.69;;;19.82;73.06
44349;BME280;30068;50.986;4.564;2022-09-09T12:51:54;100805.63;;;19.96;73.49
44349;BME280;30068;50.986;4.564;2022-09-09T12:54:23;100819.31;;;20.09;74.81
44349;BME280;30068;50.986;4.564;2022-09-09T12:56:49;100805.22;;;20.14;73.20
44349;BME280;30068;50.986;4.564;2022-09-09T12:59:26;100816.53;;;20.03;72.95
44349;BME280;30068;50.986;4.564;2022-09-09T13:02:00;100809.44;;;19.87;71.65
44349;BME280;30068;50.986;4.564;2022-09-09T13:04:26;100812.22;;;20.08;73.84
44349;BME280;30068;50.986;4.564;2022-09-09T13:06:52;100805.97;;;20.08;70.61
44349;BME280;30068;50.986;4.564;2022-09-09T13:09:18;100803.91;;;20.25;72.98
44349;BME280;30068;50.986;4.564;2022-09-09T13:11:54;100801.94;;;20.19;71.71
44349;BME280;30068;50.986;4.564;2022-09-09T13:14:28;100803.91;;;20.25;71.76
44349;BME280;30068;50.986;4.564;2022-09-09T13:16:59;100806.59;;;20.25;71.69
44349;BME280;30068;50.986;4.564;2022-09-09T13:19:25;100797.81;;;20.23;69.51
44349;BME280;30068;50.986;4.564;2022-09-09T13:21:53;100793.50;;;20.43;70.73
44349;BME280;30068;50.986;4.564;2022-09-09T13:24:28;100797.66;;;20.60;68.86
44349;BME280;30068;50.986;4.564;2022-09-09T13:27:30;100798.00;;;20.72;68.38
44349;BME280;30068;50.986;4.564;2022-09-09T13:29:56;100801.81;;;20.77;71.23
44349;BME280;30068;50.986;4.564;2022-09-09T13:32:23;100813.31;;;20.79;68.25
44349;BME280;30068;50.986;4.564;2022-09-09T13:35:00;100809.81;;;20.64;67.73
44349;BME280;30068;50.986;4.564;2022-09-09T13:37:35;100808.50;;;20.81;71.39
44349;BME280;30068;50.986;4.564;2022-09-09T13:40:02;100816.97;;;20.72;69.33
44349;BME280;30068;50.986;4.564;2022-09-09T13:42:31;100800.59;;;20.44;70.22
44349;BME280;30068;50.986;4.564;2022-09-09T13:44:59;100814.06;;;20.52;69.32
44349;BME280;30068;50.986;4.564;2022-09-09T13:47:33;100816.56;;;20.54;71.39
44349;BME280;30068;50.986;4.564;2022-09-09T13:50:23;100815.47;;;20.69;71.82
44349;BME280;30068;50.986;4.564;2022-09-09T13:52:54;100806.00;;;20.80;68.41
44349;BME280;30068;50.986;4.564;2022-09-09T13:55:21;100810.31;;;20.53;68.58
44349;BME280;30068;50.986;4.564;2022-09-09T13:57:58;100812.88;;;20.61;68.14
44349;BME280;30068;50.986;4.564;2022-09-09T14:00:26;100811.41;;;20.59;69.07
44349;BME280;30068;50.986;4.564;2022-09-09T14:02:53;100823.91;;;20.74;68.78
44349;BME280;30068;50.986;4.564;2022-09-09T14:05:20;100807.09;;;20.64;68.15
44349;BME280;30068;50.986;4.564;2022-09-09T14:07:48;100813.28;;;20.58;70.22
44349;BME280;30068;50.986;4.564;2022-09-09T14:10:14;100823.50;;;20.77;69.94
44349;BME280;30068;50.986;4.564;2022-09-09T14:12:39;100812.41;;;20.94;69.55
44349;BME280;30068;50.986;4.564;2022-09-09T14:15:06;100818.66;;;20.94;69.77
44349;BME280;30068;50.986;4.564;2022-09-09T14:17:32;100812.28;;;20.80;69.22
44349;BME280;30068;50.986;4.564;2022-09-09T14:19:59;100812.75;;;20.69;69.12
44349;BME280;30068;50.986;4.564;2022-09-09T14:22:24;100809.97;;;20.63;68.11
44349;BME280;30068;50.986;4.564;2022-09-09T14:24:50;100810.25;;;20.46;70.83
44349;BME280;30068;50.986;4.564;2022-09-09T14:27:16;100816.25;;;20.63;70.53
44349;BME280;30068;50.986;4.564;2022-09-09T14:29:44;100821.50;;;20.65;67.92
44349;BME280;30068;50.986;4.564;2022-09-09T14:32:10;100817.56;;;20.67;68.59
44349;BME280;30068;50.986;4.564;2022-09-09T14:34:35;100812.28;;;20.80;68.71
44349;BME280;30068;50.986;4.564;2022-09-09T14:37:01;100801.41;;;20.59;67.50
44349;BME280;30068;50.986;4.564;2022-09-09T14:39:26;100816.78;;;20.73;68.38
44349;BME280;30068;50.986;4.564;2022-09-09T14:41:52;100815.94;;;20.73;68.97
44349;BME280;30068;50.986;4.564;2022-09-09T14:44:17;100811.84;;;20.62;67.69
44349;BME280;30068;50.986;4.564;2022-09-09T14:46:43;100817.03;;;20.57;67.94
44349;BME280;30068;50.986;4.564;2022-09-09T14:49:08;100799.31;;;20.40;67.42
44349;BME280;30068;50.986;4.564;2022-09-09T14:51:36;100821.59;;;20.57;69.46
44349;BME280;30068;50.986;4.564;2022-09-09T14:54:02;100806.63;;;20.39;68.36
44349;BME280;30068;50.986;4.564;2022-09-09T14:56:30;100811.22;;;20.60;68.96
44349;BME280;30068;50.986;4.564;2022-09-09T14:58:58;100816.00;;;20.58;68.98
44349;BME280;30068;50.986;4.564;2022-09-09T15:01:24;100826.97;;;20.71;69.80
44349;BME280;30068;50.986;4.564;2022-09-09T15:03:54;100816.97;;;20.72;68.79
44349;BME280;30068;50.986;4.564;2022-09-09T15:06:21;100810.13;;;20.76;69.44
44349;BME280;30068;50.986;4.564;2022-09-09T15:08:50;100812.13;;;20.67;69.60
44349;BME280;30068;50.986;4.564;2022-09-09T15:11:17;100802.03;;;20.61;68.87
44349;BME280;30068;50.986;4.564;2022-09-09T15:13:43;100798.84;;;20.72;71.32
44349;BME280;30068;50.986;4.564;2022-09-09T15:16:11;100793.28;;;20.80;70.80
44349;BME280;30068;50.986;4.564;2022-09-09T15:18:36;100777.13;;;20.72;69.28
44349;BME280;30068;50.986;4.564;2022-09-09T15:21:08;100786.19;;;20.79;69.36
44349;BME280;30068;50.986;4.564;2022-09-09T15:23:35;100787.16;;;20.93;68.78
44349;BME280;30068;50.986;4.564;2022-09-09T15:26:00;100794.03;;;20.96;69.16
44349;BME280;30068;50.986;4.564;2022-09-09T15:28:26;100797.53;;;20.89;65.99
44349;BME280;30068;50.986;4.564;2022-09-09T15:30:53;100801.50;;;20.87;68.35
44349;BME280;30068;50.986;4.564;2022-09-09T15:33:20;100805.28;;;20.93;69.07